Bowman, South Carolina
Current Conditions -  °F | °C
As of 1:53 PM on Tuesday 21 Oct 2014 (Local Time) from KOGB Reporting Station
Clear Clear  
Wind Chill: 76°   Ceiling: Unl
Heat Index: 76°   Visibility: 10mi
Dew Point: 49°   Wind: 7mph
Humidity: 38%   Direction: 290°WNW
Pressure: 29.9"   Gusts: NA
Location:  33.35°N, 80.68°W
Report Text: KOGB 211753Z AUTO 29006KT 10SM CLR 24/09 A2990 RMK AO2 SLP124 T02440094 10244 20106 58025
Loading
Personal Weather Stations






























Interactive Weather Map
Tropical Storm Tracking
New forecast layout! Learn more

10-Day Weather Forecast

Advertisements
Track Severe Weather on mobile